Time;durP1;ratioP1;P1;durP2;ratioP2;P2;SDS_P1;SDS_P2;PMS_P1;PMS_P2;Temp;Humidity;BMP_temperature;BMP_pressure;BME280_temperature;BME280_humidity;BME280_pressure;Samples;Min_cycle;Max_cycle;Signal;HPM_P1;HPM_P2
2021/12/13 00:02:07;;;;;;;1.83;1.75;;;6.60;99.90;;;;;;5040736;28;20032;-75
2021/12/13 00:04:37;;;;;;;0.10;0.10;;;6.60;99.90;;;;;;5037726;28;20037;-73
2021/12/13 00:07:25;;;;;;;0.10;0.10;;;6.70;99.90;;;;;;5041784;28;20426;-74
2021/12/13 00:09:55;;;;;;;0.43;0.43;;;6.60;99.90;;;;;;5028884;28;20132;-74
2021/12/13 00:12:33;;;;;;;0.77;0.73;;;6.60;99.90;;;;;;5042986;28;20063;-74
2021/12/13 00:15:07;;;;;;;0.10;0.10;;;6.50;99.90;;;;;;5048814;28;20032;-74
2021/12/13 00:17:39;;;;;;;0.10;0.10;;;6.50;99.90;;;;;;5049073;28;20601;-75
2021/12/13 00:20:14;;;;;;;0.10;0.10;;;6.50;99.90;;;;;;5044684;28;20025;-74
2021/12/13 00:22:51;;;;;;;0.10;0.10;;;6.50;99.90;;;;;;5029108;28;20441;-74
2021/12/13 00:25:21;;;;;;;0.10;0.10;;;6.40;99.90;;;;;;5028988;28;20158;-73
2021/12/13 00:27:52;;;;;;;0.10;0.10;;;6.40;99.90;;;;;;5029382;28;20471;-75
2021/12/13 00:30:28;;;;;;;0.82;0.82;;;6.30;99.90;;;;;;5029121;28;20080;-74
2021/12/13 00:33:33;;;;;;;0.77;0.77;;;6.40;99.90;;;;;;5030038;28;20064;-74
2021/12/13 00:36:14;;;;;;;1.98;1.83;;;6.40;99.90;;;;;;5033146;28;20027;-74
2021/12/13 00:38:50;;;;;;;0.10;0.10;;;6.40;99.90;;;;;;5037284;28;20028;-73
2021/12/13 00:41:26;;;;;;;0.10;0.10;;;6.40;99.90;;;;;;5038980;28;20386;-73
2021/12/13 00:43:56;;;;;;;0.10;0.10;;;6.40;99.90;;;;;;5030609;28;20029;-73
2021/12/13 00:46:25;;;;;;;2.55;2.45;;;6.50;99.90;;;;;;5043017;28;20029;-75
2021/12/13 00:48:54;;;;;;;0.10;0.10;;;6.50;99.90;;;;;;5046319;28;20029;-73
2021/12/13 00:51:44;;;;;;;0.38;0.38;;;6.50;99.90;;;;;;5048506;28;20161;-73
2021/12/13 00:54:19;;;;;;;0.05;0.05;;;6.50;99.90;;;;;;5040442;28;20112;-74
2021/12/13 00:56:54;;;;;;;0.10;0.10;;;6.40;99.90;;;;;;5043017;28;20121;-73
2021/12/13 00:59:24;;;;;;;0.10;0.10;;;6.40;99.90;;;;;;5032012;28;20067;-73
2021/12/13 01:02:06;;;;;;;0.10;0.10;;;6.40;99.90;;;;;;5034510;28;20151;-73
2021/12/13 01:05:01;;;;;;;0.10;0.10;;;6.40;99.90;;;;;;5043861;28;20458;-74
2021/12/13 01:07:33;;;;;;;0.10;0.10;;;6.40;99.90;;;;;;5043853;28;20037;-73
2021/12/13 01:10:46;;;;;;;2.00;1.90;;;6.40;99.90;;;;;;5041404;28;20144;-73
2021/12/13 01:13:23;;;;;;;0.50;0.50;;;6.50;99.90;;;;;;5049552;28;20395;-75
2021/12/13 01:15:57;;;;;;;0.10;0.10;;;6.50;99.90;;;;;;5051748;28;20025;-72
2021/12/13 01:21:55;;;;;;;0.82;0.82;;;6.40;99.90;;;;;;5031781;28;20103;-74
2021/12/13 01:24:52;;;;;;;0.10;0.10;;;6.40;99.90;;;;;;5038076;28;20020;-73
2021/12/13 01:27:09;;;;;;;0.10;0.10;;;6.30;99.90;;;;;;5032061;28;20117;-73
2021/12/13 01:29:34;;;;;;;0.10;0.10;;;6.30;99.90;;;;;;5031182;28;20109;-74
2021/12/13 01:32:08;;;;;;;0.10;0.10;;;6.30;99.90;;;;;;5031619;28;20060;-74
2021/12/13 01:34:35;;;;;;;;;;;6.30;99.90;;;;;;5031512;28;20100;-75
2021/12/13 01:37:12;;;;;;;0.25;0.25;;;6.20;99.90;;;;;;5031913;28;20380;-73
2021/12/13 01:39:46;;;;;;;0.10;0.10;;;6.30;99.90;;;;;;5029982;28;20026;-73
2021/12/13 01:42:21;;;;;;;0.10;0.10;;;6.20;99.90;;;;;;5038053;28;20087;-73
2021/12/13 01:44:55;;;;;;;0.68;0.68;;;6.20;99.90;;;;;;5050946;28;20029;-75
2021/12/13 01:47:37;;;;;;;0.30;0.30;;;6.20;99.90;;;;;;5035101;28;20029;-73
2021/12/13 01:50:09;;;;;;;0.10;0.10;;;6.20;99.90;;;;;;5035231;28;20036;-74
2021/12/13 01:52:37;;;;;;;0.20;0.20;;;6.20;99.90;;;;;;5031581;28;20028;-72
2021/12/13 01:55:22;;;;;;;0.30;0.30;;;6.20;99.90;;;;;;5031841;28;20029;-73
2021/12/13 01:57:54;;;;;;;0.10;0.10;;;6.20;99.90;;;;;;5031680;28;20025;-73
2021/12/13 02:00:43;;;;;;;0.10;0.10;;;6.20;99.90;;;;;;5046585;28;20024;-73
2021/12/13 02:03:09;;;;;;;0.10;0.10;;;6.20;99.90;;;;;;5039083;28;20033;-73
2021/12/13 02:05:35;;;;;;;0.10;0.10;;;6.20;99.90;;;;;;5031048;28;20037;-73
2021/12/13 02:08:11;;;;;;;0.10;0.10;;;6.20;99.90;;;;;;5035437;28;20033;-72
2021/12/13 02:10:41;;;;;;;0.10;0.10;;;6.20;99.90;;;;;;5040934;28;20616;-73
2021/12/13 02:13:14;;;;;;;0.10;0.10;;;6.30;99.90;;;;;;5046179;28;20459;-73
2021/12/13 02:18:32;;;;;;;0.20;0.20;;;6.20;99.90;;;;;;5051007;28;20056;-73
2021/12/13 02:21:07;;;;;;;0.10;0.10;;;6.20;99.90;;;;;;5047647;28;20025;-73
2021/12/13 02:23:42;;;;;;;0.10;0.10;;;6.20;99.90;;;;;;5030924;28;20036;-73
2021/12/13 02:26:08;;;;;;;0.10;0.10;;;6.40;99.90;;;;;;5030606;28;20081;-72
2021/12/13 02:28:38;;;;;;;0.10;0.10;;;6.40;99.90;;;;;;5031385;28;20396;-72
2021/12/13 02:31:09;;;;;;;0.10;0.10;;;6.40;99.90;;;;;;5044683;28;20098;-73
2021/12/13 02:33:48;;;;;;;0.10;0.10;;;6.40;99.90;;;;;;5040480;28;20027;-73
2021/12/13 02:36:25;;;;;;;0.10;0.10;;;6.40;99.90;;;;;;5049067;28;20032;-74
2021/12/13 02:38:55;;;;;;;0.00;0.00;;;6.30;99.90;;;;;;5050855;28;20025;-74
2021/12/13 02:41:25;;;;;;;0.10;0.10;;;6.30;99.90;;;;;;5036275;28;20247;-74
2021/12/13 02:43:55;;;;;;;0.10;0.10;;;6.40;99.90;;;;;;5039555;28;20025;-73
2021/12/13 02:46:21;;;;;;;0.10;0.10;;;6.40;99.90;;;;;;5041764;28;20136;-72
2021/12/13 02:48:51;;;;;;;0.10;0.10;;;6.50;99.90;;;;;;5038651;28;20431;-73
2021/12/13 02:51:23;;;;;;;0.10;0.10;;;6.50;99.90;;;;;;5043648;28;20033;-73
2021/12/13 02:53:53;;;;;;;0.10;0.10;;;6.40;99.90;;;;;;5049828;28;20021;-72
2021/12/13 02:56:22;;;;;;;0.10;0.10;;;6.40;99.90;;;;;;5040458;28;20288;-72
2021/12/13 02:58:49;;;;;;;0.10;0.10;;;6.30;99.90;;;;;;5030316;28;20030;-74
2021/12/13 03:01:29;;;;;;;0.10;0.10;;;6.30;99.90;;;;;;5029677;28;20121;-73
2021/12/13 03:03:58;;;;;;;0.10;0.10;;;6.30;99.90;;;;;;5032921;28;20082;-75
2021/12/13 03:06:29;;;;;;;0.10;0.10;;;6.30;99.90;;;;;;5040446;28;20017;-73
2021/12/13 03:09:00;;;;;;;0.10;0.10;;;6.30;99.90;;;;;;5038245;28;20051;-74
2021/12/13 03:11:33;;;;;;;0.10;0.10;;;6.30;99.90;;;;;;5032266;28;20548;-73
2021/12/13 03:14:03;;;;;;;0.10;0.10;;;6.30;99.90;;;;;;5040791;28;20033;-73
2021/12/13 03:16:36;;;;;;;0.10;0.10;;;6.30;99.90;;;;;;5040448;28;20029;-72
2021/12/13 03:19:17;;;;;;;0.15;0.15;;;6.30;99.90;;;;;;5047553;28;20034;-74
2021/12/13 03:22:07;;;;;;;0.10;0.10;;;6.30;99.90;;;;;;5045814;28;20025;-73
2021/12/13 03:24:35;;;;;;;0.10;0.10;;;6.30;99.90;;;;;;5044283;28;20029;-73
2021/12/13 03:27:27;;;;;;;0.10;0.10;;;6.40;99.90;;;;;;5049497;28;20048;-73
2021/12/13 03:29:58;;;;;;;0.05;0.05;;;6.40;99.90;;;;;;5018106;28;20045;-72
2021/12/13 03:32:30;;;;;;;0.10;0.10;;;6.60;99.90;;;;;;5028863;28;20025;-74
2021/12/13 03:35:13;;;;;;;0.10;0.10;;;6.50;99.90;;;;;;5044558;28;20101;-74
2021/12/13 03:37:40;;;;;;;0.10;0.10;;;6.50;99.90;;;;;;5045756;28;20076;-74
2021/12/13 03:40:15;;;;;;;0.10;0.10;;;6.60;99.90;;;;;;5029070;28;20025;-73
2021/12/13 03:42:45;;;;;;;0.85;0.85;;;6.60;99.90;;;;;;5039812;28;20017;-73
2021/12/13 03:45:20;;;;;;;0.10;0.10;;;6.60;99.90;;;;;;5029612;28;20080;-73
2021/12/13 03:47:50;;;;;;;0.10;0.10;;;6.50;99.90;;;;;;5029218;28;20113;-73
2021/12/13 03:50:24;;;;;;;0.10;0.10;;;6.50;99.90;;;;;;5030108;28;20025;-74
2021/12/13 03:52:54;;;;;;;0.10;0.10;;;6.50;99.90;;;;;;5029838;28;20028;-74
2021/12/13 03:55:26;;;;;;;0.10;0.10;;;6.50;99.90;;;;;;5030045;28;20021;-74
2021/12/13 03:57:56;;;;;;;0.10;0.10;;;6.60;99.90;;;;;;5034086;28;20119;-74
2021/12/13 04:00:26;;;;;;;0.10;0.10;;;6.60;99.90;;;;;;5050563;28;20061;-72
2021/12/13 04:02:55;;;;;;;0.10;0.10;;;6.60;99.90;;;;;;5049129;28;20021;-72
2021/12/13 04:05:24;;;;;;;0.10;0.10;;;6.60;99.90;;;;;;5049554;28;20056;-74
2021/12/13 04:07:54;;;;;;;0.10;0.10;;;6.70;99.90;;;;;;5040173;28;20041;-73
2021/12/13 04:10:24;;;;;;;0.00;0.00;;;6.70;99.90;;;;;;5030164;28;20053;-73
2021/12/13 04:12:54;;;;;;;0.10;0.10;;;6.80;99.90;;;;;;5046677;28;20177;-72
2021/12/13 04:15:53;;;;;;;0.30;0.30;;;6.70;99.90;;;;;;5035704;28;20401;-73
2021/12/13 04:19:06;;;;;;;0.08;0.08;;;6.70;99.90;;;;;;5040756;28;20029;-73
2021/12/13 04:21:34;;;;;;;0.05;0.05;;;6.70;99.90;;;;;;5029249;28;20087;-73
2021/12/13 04:24:05;;;;;;;0.10;0.10;;;6.80;99.90;;;;;;5029016;28;20045;-75
2021/12/13 04:26:41;;;;;;;0.10;0.10;;;6.80;99.90;;;;;;5028885;28;20021;-72
2021/12/13 04:29:17;;;;;;;0.10;0.10;;;6.60;99.90;;;;;;5028477;28;20070;-74
2021/12/13 04:31:43;;;;;;;0.10;0.10;;;6.80;99.90;;;;;;5034543;28;20471;-73
2021/12/13 04:34:09;;;;;;;3.03;1.27;;;6.80;99.90;;;;;;5053241;28;20513;-74
2021/12/13 04:36:43;;;;;;;0.10;0.10;;;6.90;99.90;;;;;;5035605;28;20025;-73
2021/12/13 04:39:29;;;;;;;1.10;1.10;;;6.90;99.90;;;;;;5041309;28;20111;-72
2021/12/13 04:42:00;;;;;;;0.10;0.10;;;6.90;99.90;;;;;;5035466;28;20021;-72
2021/12/13 04:44:33;;;;;;;0.10;0.10;;;6.90;99.90;;;;;;5038525;28;20072;-74
2021/12/13 04:47:11;;;;;;;0.10;0.10;;;6.90;99.90;;;;;;5033540;28;20092;-73
2021/12/13 04:49:42;;;;;;;0.10;0.10;;;6.90;99.90;;;;;;5042674;28;20029;-74
2021/12/13 04:52:12;;;;;;;0.10;0.10;;;6.90;99.90;;;;;;5045455;28;20113;-72
2021/12/13 04:54:41;;;;;;;0.10;0.10;;;7.00;99.90;;;;;;5031816;28;20140;-74
2021/12/13 04:57:07;;;;;;;0.10;0.10;;;6.90;99.90;;;;;;5032815;28;20436;-73
2021/12/13 04:59:35;;;;;;;0.10;0.10;;;6.90;99.90;;;;;;5031083;28;20037;-73
2021/12/13 05:02:07;;;;;;;0.10;0.10;;;6.80;99.90;;;;;;5033078;28;20068;-73
2021/12/13 05:04:33;;;;;;;0.10;0.10;;;6.70;99.90;;;;;;5045203;28;20048;-73
2021/12/13 05:07:01;;;;;;;0.10;0.10;;;6.70;99.90;;;;;;5051294;28;20033;-73
2021/12/13 05:09:28;;;;;;;0.20;0.20;;;6.70;99.90;;;;;;5045557;28;20044;-73
2021/12/13 05:12:01;;;;;;;0.10;0.10;;;6.70;99.90;;;;;;5043437;28;20033;-73
2021/12/13 05:14:29;;;;;;;;;;;6.70;99.90;;;;;;5044647;28;20021;-73
2021/12/13 05:16:57;;;;;;;0.10;0.10;;;6.70;99.90;;;;;;5052257;28;19908;-74
2021/12/13 05:20:09;;;;;;;0.10;0.10;;;6.80;99.90;;;;;;5040054;28;20116;-73
2021/12/13 05:22:53;;;;;;;0.10;0.10;;;6.70;99.90;;;;;;5031350;28;20030;-71
2021/12/13 05:25:46;;;;;;;0.10;0.10;;;6.60;99.90;;;;;;5048217;28;20025;-73
2021/12/13 05:28:19;;;;;;;0.17;0.17;;;6.60;99.90;;;;;;5043125;28;20044;-74
2021/12/13 05:30:58;;;;;;;0.10;0.10;;;6.60;99.90;;;;;;5038716;28;20091;-73
2021/12/13 05:33:28;;;;;;;0.10;0.10;;;6.70;99.90;;;;;;5044377;28;20025;-73
2021/12/13 05:35:57;;;;;;;2.05;1.95;;;6.70;99.90;;;;;;5035016;28;20482;-74
2021/12/13 05:38:34;;;;;;;0.10;0.10;;;6.80;99.90;;;;;;5041325;28;20026;-74
2021/12/13 05:41:05;;;;;;;0.10;0.10;;;6.70;99.90;;;;;;5056890;28;20052;-73
2021/12/13 05:43:45;;;;;;;0.10;0.10;;;6.70;99.90;;;;;;5060601;28;20108;-73
2021/12/13 05:46:25;;;;;;;0.10;0.10;;;6.80;99.90;;;;;;5053316;28;20025;-73
2021/12/13 05:48:55;;;;;;;0.28;0.28;;;6.80;99.90;;;;;;5048937;28;20025;-72
2021/12/13 05:51:34;;;;;;;0.10;0.10;;;6.80;99.90;;;;;;5040702;28;20056;-72
2021/12/13 05:54:08;;;;;;;0.65;0.65;;;6.90;99.90;;;;;;5041165;28;20091;-74
2021/12/13 05:56:54;;;;;;;0.10;0.10;;;6.90;99.90;;;;;;5062606;28;20051;-73
2021/12/13 05:59:32;;;;;;;0.10;0.10;;;6.90;99.90;;;;;;5052963;28;20089;-73
2021/12/13 06:02:17;;;;;;;0.20;0.20;;;6.90;99.90;;;;;;5051869;28;20040;-72
2021/12/13 06:04:59;;;;;;;0.10;0.10;;;6.90;99.90;;;;;;5065275;28;20565;-74
2021/12/13 06:07:28;;;;;;;0.10;0.10;;;6.90;99.90;;;;;;5066869;28;20117;-72
2021/12/13 06:10:06;;;;;;;0.10;0.10;;;6.90;99.90;;;;;;5060219;28;20617;-74
2021/12/13 06:12:55;;;;;;;0.10;0.10;;;7.00;99.90;;;;;;5066667;28;20036;-73
2021/12/13 06:15:27;;;;;;;0.10;0.10;;;7.00;99.90;;;;;;5065666;28;20061;-73
2021/12/13 06:18:01;;;;;;;4.60;1.75;;;7.00;99.90;;;;;;5062448;28;20009;-73
2021/12/13 06:20:29;;;;;;;0.10;0.10;;;7.00;99.90;;;;;;5068319;28;20072;-73
2021/12/13 06:23:11;;;;;;;0.00;0.00;;;7.00;99.90;;;;;;5059312;28;20146;-75
2021/12/13 06:25:38;;;;;;;0.10;0.10;;;6.90;99.90;;;;;;5050125;28;20025;-74
2021/12/13 06:28:05;;;;;;;0.10;0.10;;;6.90;99.90;;;;;;5055100;28;20067;-73
2021/12/13 06:30:38;;;;;;;0.10;0.10;;;6.90;99.90;;;;;;5058663;28;20021;-73
2021/12/13 06:33:10;;;;;;;0.57;0.30;;;6.90;99.90;;;;;;5061930;28;20034;-73
2021/12/13 06:35:41;;;;;;;0.10;0.10;;;7.00;99.90;;;;;;5059048;28;20089;-74
2021/12/13 06:38:32;;;;;;;0.10;0.10;;;7.00;99.90;;;;;;5061340;28;20020;-75
2021/12/13 06:41:13;;;;;;;0.10;0.10;;;7.00;99.90;;;;;;5057825;28;20110;-73
2021/12/13 06:43:50;;;;;;;0.10;0.10;;;7.10;99.90;;;;;;5064347;28;20035;-74
2021/12/13 06:46:25;;;;;;;0.10;0.10;;;7.10;99.90;;;;;;5056669;28;20021;-75
2021/12/13 06:49:12;;;;;;;0.30;0.30;;;7.10;99.90;;;;;;5065503;28;20033;-74
2021/12/13 06:51:40;;;;;;;0.10;0.10;;;7.20;99.90;;;;;;5050514;28;20024;-74
2021/12/13 06:54:10;;;;;;;0.10;0.10;;;7.20;99.90;;;;;;5035022;28;20024;-73
2021/12/13 06:56:37;;;;;;;0.15;0.15;;;7.20;99.90;;;;;;5038933;28;20029;-74
2021/12/13 06:59:05;;;;;;;0.10;0.10;;;7.20;99.90;;;;;;5038206;28;20021;-73
2021/12/13 07:01:34;;;;;;;0.20;0.20;;;7.30;99.90;;;;;;5050355;28;20043;-74
2021/12/13 07:04:05;;;;;;;0.10;0.10;;;7.10;99.90;;;;;;5034168;28;20158;-73
2021/12/13 07:06:31;;;;;;;0.10;0.10;;;7.10;99.90;;;;;;5048442;28;20104;-73
2021/12/13 07:09:11;;;;;;;0.10;0.10;;;7.10;99.90;;;;;;5044917;28;20064;-75
2021/12/13 07:11:48;;;;;;;0.10;0.10;;;7.10;99.90;;;;;;5040239;28;20025;-73
2021/12/13 07:14:17;;;;;;;0.10;0.10;;;7.10;99.90;;;;;;5040308;28;20034;-73
2021/12/13 07:16:50;;;;;;;0.50;0.50;;;7.10;99.90;;;;;;5038819;28;20062;-72
2021/12/13 07:19:24;;;;;;;0.45;0.45;;;7.10;99.90;;;;;;5044874;28;20075;-74
2021/12/13 07:21:56;;;;;;;0.10;0.10;;;7.10;99.90;;;;;;5043271;28;20144;-74
2021/12/13 07:24:42;;;;;;;0.10;0.10;;;7.10;99.90;;;;;;5043413;28;20116;-73
2021/12/13 07:27:22;;;;;;;0.10;0.10;;;7.20;99.90;;;;;;5038338;28;20017;-71
2021/12/13 07:29:51;;;;;;;0.10;0.10;;;7.00;99.90;;;;;;5040990;28;20029;-73
2021/12/13 07:32:30;;;;;;;0.10;0.10;;;7.30;99.90;;;;;;5041650;28;20033;-74
2021/12/13 07:35:17;;;;;;;1.00;1.00;;;7.20;99.90;;;;;;5038049;28;20029;-73
2021/12/13 07:38:00;;;;;;;0.10;0.10;;;7.20;99.90;;;;;;5038510;28;20025;-74
2021/12/13 07:40:32;;;;;;;0.10;0.10;;;7.20;99.90;;;;;;5041925;28;20044;-75
2021/12/13 07:43:23;;;;;;;0.75;0.75;;;7.70;99.90;;;;;;5042613;28;20033;-74
2021/12/13 07:45:55;;;;;;;0.10;0.10;;;7.20;99.90;;;;;;5036605;28;20041;-73
2021/12/13 07:48:29;;;;;;;1.98;1.05;;;7.20;99.90;;;;;;5042011;28;20025;-74
2021/12/13 07:51:07;;;;;;;0.20;0.20;;;7.10;99.90;;;;;;5047268;28;20029;-72
2021/12/13 07:53:46;;;;;;;0.10;0.10;;;7.20;99.90;;;;;;5040772;28;20490;-72
2021/12/13 07:56:24;;;;;;;0.10;0.10;;;7.30;99.90;;;;;;5032706;28;20072;-77
2021/12/13 07:58:57;;;;;;;0.38;0.38;;;7.30;99.90;;;;;;5036780;28;20168;-74
2021/12/13 08:01:24;;;;;;;;;;;7.30;99.90;;;;;;5043682;28;20025;-75
2021/12/13 08:03:58;;;;;;;0.10;0.10;;;7.40;99.90;;;;;;5040379;28;19974;-75
2021/12/13 08:06:32;;;;;;;0.10;0.10;;;7.40;99.90;;;;;;5034570;28;20037;-76
2021/12/13 08:09:00;;;;;;;0.10;0.10;;;7.40;99.90;;;;;;5046922;28;20056;-75
2021/12/13 08:11:45;;;;;;;0.10;0.10;;;7.40;99.90;;;;;;5032010;28;20517;-72
2021/12/13 08:14:11;;;;;;;0.10;0.10;;;7.40;99.90;;;;;;5046851;28;20033;-73
2021/12/13 08:16:43;;;;;;;0.10;0.10;;;7.40;99.90;;;;;;5049190;28;20103;-74
2021/12/13 08:19:25;;;;;;;0.10;0.10;;;7.50;99.90;;;;;;5040519;28;20013;-77
2021/12/13 08:21:58;;;;;;;0.10;0.10;;;7.60;99.90;;;;;;5043662;28;20333;-76
2021/12/13 08:24:32;;;;;;;;;;;7.60;99.90;;;;;;5038343;28;20113;-74
2021/12/13 08:27:13;;;;;;;0.10;0.10;;;7.50;99.90;;;;;;5034126;28;20000;-74
2021/12/13 08:29:40;;;;;;;0.73;0.68;;;7.40;99.90;;;;;;5039559;28;20121;-75
2021/12/13 08:32:12;;;;;;;0.10;0.10;;;7.40;99.90;;;;;;5047331;28;20099;-76
2021/12/13 08:34:45;;;;;;;0.10;0.10;;;7.50;99.90;;;;;;5038991;28;20066;-76
2021/12/13 08:37:30;;;;;;;0.10;0.10;;;7.60;99.90;;;;;;5036400;28;20047;-77
2021/12/13 08:40:02;;;;;;;0.10;0.10;;;7.80;99.90;;;;;;5040426;28;20036;-77
2021/12/13 08:42:31;;;;;;;0.10;0.10;;;7.90;99.90;;;;;;5037427;28;20029;-76
2021/12/13 08:45:06;;;;;;;0.30;0.30;;;8.00;99.90;;;;;;5041486;28;20039;-75
2021/12/13 08:47:49;;;;;;;0.10;0.10;;;8.10;99.90;;;;;;5044084;28;20143;-74
2021/12/13 08:50:44;;;;;;;0.10;0.10;;;8.20;99.90;;;;;;5043310;28;20156;-75
2021/12/13 08:53:20;;;;;;;0.10;0.10;;;8.30;99.90;;;;;;5051935;28;20071;-78
2021/12/13 08:56:00;;;;;;;0.15;0.15;;;8.10;99.90;;;;;;5035205;28;20115;-75
2021/12/13 08:58:26;;;;;;;0.10;0.10;;;8.10;99.90;;;;;;5043590;28;20025;-76
2021/12/13 09:00:59;;;;;;;0.43;0.43;;;8.10;99.90;;;;;;5036771;28;20098;-74
2021/12/13 09:03:44;;;;;;;0.98;0.98;;;8.10;99.90;;;;;;5041437;28;20029;-75
2021/12/13 09:06:16;;;;;;;0.20;0.20;;;8.10;99.90;;;;;;5044978;28;20045;-75
2021/12/13 09:08:44;;;;;;;0.10;0.10;;;8.00;99.90;;;;;;5052110;28;20501;-76
2021/12/13 09:11:30;;;;;;;0.10;0.10;;;8.00;99.90;;;;;;5045973;28;20025;-76
2021/12/13 09:14:08;;;;;;;0.20;0.20;;;8.00;99.90;;;;;;5050294;28;20032;-76
2021/12/13 09:17:07;;;;;;;0.10;0.10;;;8.10;99.90;;;;;;5049344;28;20532;-77
2021/12/13 09:19:40;;;;;;;0.10;0.10;;;8.20;99.90;;;;;;5047675;28;20029;-74
2021/12/13 09:22:37;;;;;;;0.10;0.10;;;8.30;99.90;;;;;;5046536;28;20554;-76
2021/12/13 09:25:18;;;;;;;0.10;0.10;;;8.30;99.90;;;;;;5048478;28;20033;-75
2021/12/13 09:27:56;;;;;;;0.10;0.10;;;8.40;99.90;;;;;;5036576;28;20261;-75
2021/12/13 09:30:36;;;;;;;0.10;0.10;;;8.40;99.90;;;;;;5037139;28;20032;-75
2021/12/13 09:33:19;;;;;;;0.60;0.57;;;8.40;99.90;;;;;;5038556;28;20033;-74
2021/12/13 09:35:47;;;;;;;0.10;0.10;;;8.40;99.90;;;;;;5045346;28;20037;-76
2021/12/13 09:38:25;;;;;;;0.00;0.00;;;8.50;99.90;;;;;;5046709;28;20021;-76
2021/12/13 09:41:12;;;;;;;0.10;0.10;;;8.50;99.90;;;;;;5048679;28;20033;-73
2021/12/13 09:43:49;;;;;;;0.10;0.10;;;8.60;99.90;;;;;;5047650;28;20031;-72
2021/12/13 09:46:28;;;;;;;0.10;0.10;;;8.70;99.90;;;;;;5039677;28;20522;-70
2021/12/13 09:48:55;;;;;;;0.10;0.10;;;8.70;99.90;;;;;;5034682;28;20553;-72
2021/12/13 09:51:41;;;;;;;0.10;0.10;;;8.60;99.90;;;;;;5048657;28;20031;-74
2021/12/13 09:54:10;;;;;;;0.30;0.30;;;8.50;99.90;;;;;;5045086;28;20113;-71
2021/12/13 09:56:39;;;;;;;0.10;0.10;;;8.60;99.90;;;;;;5041944;28;20021;-69
2021/12/13 09:59:17;;;;;;;0.30;0.30;;;8.60;99.90;;;;;;5043965;28;20022;-72
2021/12/13 10:01:44;;;;;;;0.10;0.10;;;8.80;99.90;;;;;;5043795;28;20242;-71
2021/12/13 10:04:12;;;;;;;0.10;0.10;;;8.90;99.90;;;;;;5045775;28;20445;-73
2021/12/13 10:06:52;;;;;;;0.10;0.10;;;9.00;99.90;;;;;;5041774;28;20033;-74
2021/12/13 10:09:19;;;;;;;0.00;0.00;;;8.90;99.90;;;;;;5045113;28;20029;-73
2021/12/13 10:11:56;;;;;;;0.10;0.10;;;9.10;99.90;;;;;;5047567;28;20017;-72
2021/12/13 10:14:29;;;;;;;0.10;0.10;;;9.10;99.90;;;;;;5036616;28;20033;-72
2021/12/13 10:16:57;;;;;;;0.30;0.30;;;9.00;99.90;;;;;;5041183;28;20112;-74
2021/12/13 10:19:35;;;;;;;0.38;0.38;;;9.10;99.90;;;;;;5040756;28;20561;-74
2021/12/13 10:22:02;;;;;;;0.10;0.10;;;9.20;99.90;;;;;;5041891;28;20032;-71
2021/12/13 10:24:36;;;;;;;0.10;0.10;;;9.30;99.90;;;;;;5042784;28;20344;-71
2021/12/13 10:27:05;;;;;;;0.00;0.00;;;9.20;99.90;;;;;;5045647;28;20134;-72
2021/12/13 10:29:31;;;;;;;4.00;3.70;;;9.20;99.90;;;;;;5039566;28;20032;-72
2021/12/13 10:32:01;;;;;;;0.20;0.20;;;9.20;99.90;;;;;;5038893;28;20044;-74
2021/12/13 10:34:34;;;;;;;0.10;0.10;;;9.20;99.90;;;;;;5040697;28;20105;-72
2021/12/13 10:37:07;;;;;;;0.10;0.10;;;9.40;99.90;;;;;;5033297;28;20427;-72
2021/12/13 10:39:39;;;;;;;0.30;0.30;;;9.30;99.90;;;;;;5034282;28;20029;-73
2021/12/13 10:42:11;;;;;;;3.17;2.38;;;9.70;99.90;;;;;;5039252;28;20141;-72
2021/12/13 10:44:43;;;;;;;0.10;0.10;;;9.40;99.90;;;;;;5037405;28;20023;-72
2021/12/13 10:47:14;;;;;;;3.30;1.45;;;9.50;99.90;;;;;;5039446;28;20038;-71
2021/12/13 10:49:44;;;;;;;0.10;0.10;;;9.50;99.90;;;;;;5038670;28;20020;-71
2021/12/13 10:52:22;;;;;;;0.10;0.10;;;9.50;99.90;;;;;;5035438;28;20537;-72
2021/12/13 10:54:52;;;;;;;0.00;0.00;;;9.40;99.90;;;;;;5039109;28;20071;-73
2021/12/13 10:57:23;;;;;;;0.10;0.10;;;9.40;99.90;;;;;;5039208;28;20184;-72
2021/12/13 10:59:50;;;;;;;0.10;0.10;;;9.50;99.90;;;;;;5036789;28;20029;-72
2021/12/13 11:02:20;;;;;;;0.00;0.00;;;9.50;99.90;;;;;;5034376;28;20109;-72
2021/12/13 11:04:53;;;;;;;0.10;0.10;;;9.50;99.90;;;;;;5041427;28;20108;-73
2021/12/13 11:07:19;;;;;;;1.65;1.55;;;9.60;99.90;;;;;;5037197;28;20033;-73
2021/12/13 11:09:46;;;;;;;0.00;0.00;;;9.70;99.90;;;;;;5036370;28;20033;-74
2021/12/13 11:12:27;;;;;;;0.20;0.20;;;9.70;99.90;;;;;;5038645;28;20022;-73
2021/12/13 11:14:55;;;;;;;0.00;0.00;;;9.70;99.90;;;;;;5038066;28;20560;-74
2021/12/13 11:17:26;;;;;;;0.10;0.10;;;9.70;99.90;;;;;;5038923;28;20166;-73
2021/12/13 11:19:57;;;;;;;0.10;0.10;;;9.60;99.90;;;;;;5034462;28;20104;-72
2021/12/13 11:22:31;;;;;;;0.57;0.57;;;9.70;99.90;;;;;;5037869;28;20029;-75
2021/12/13 11:25:03;;;;;;;0.10;0.10;;;9.70;99.90;;;;;;5036329;28;20115;-77
2021/12/13 11:27:32;;;;;;;0.10;0.10;;;9.80;99.90;;;;;;5040877;28;20369;-74
2021/12/13 11:30:01;;;;;;;0.10;0.10;;;9.80;99.90;;;;;;5041122;28;20033;-75
2021/12/13 11:32:39;;;;;;;0.10;0.10;;;9.70;99.90;;;;;;5044045;28;20104;-72
2021/12/13 11:35:07;;;;;;;0.10;0.10;;;9.70;99.90;;;;;;5037747;28;20063;-72
2021/12/13 11:37:57;;;;;;;3.22;3.03;;;9.70;99.90;;;;;;5041515;28;20035;-73
2021/12/13 11:40:23;;;;;;;0.10;0.10;;;9.70;99.90;;;;;;5037781;28;20021;-72
2021/12/13 11:43:04;;;;;;;0.10;0.10;;;9.80;99.90;;;;;;5044238;28;20048;-74
2021/12/13 11:45:56;;;;;;;0.10;0.10;;;9.80;99.90;;;;;;5038479;28;20078;-73
2021/12/13 11:48:40;;;;;;;0.10;0.10;;;9.70;99.90;;;;;;5041611;28;20021;-72
2021/12/13 11:51:14;;;;;;;;;;;9.80;99.90;;;;;;5041134;28;20021;-73
2021/12/13 11:53:46;;;;;;;;;;;9.80;99.90;;;;;;5041575;28;19963;-72
2021/12/13 11:56:53;;;;;;;0.30;0.30;;;9.90;99.90;;;;;;5043006;28;20007;-73
2021/12/13 12:00:09;;;;;;;0.10;0.10;;;9.80;99.90;;;;;;5036074;28;20064;-72
2021/12/13 12:02:44;;;;;;;0.10;0.10;;;9.80;99.90;;;;;;5009910;28;20061;-73
2021/12/13 12:05:37;;;;;;;0.00;0.00;;;9.80;99.90;;;;;;5032776;28;20071;-72
2021/12/13 12:08:53;;;;;;;0.10;0.10;;;9.80;99.90;;;;;;5038337;28;20086;-73
2021/12/13 12:11:47;;;;;;;0.70;0.70;;;10.00;99.90;;;;;;5038573;28;20029;-73
2021/12/13 12:14:13;;;;;;;0.10;0.10;;;9.90;99.90;;;;;;5036755;28;20476;-72
2021/12/13 12:16:43;;;;;;;0.10;0.10;;;9.80;99.90;;;;;;5034780;28;20045;-72
2021/12/13 12:19:19;;;;;;;0.20;0.20;;;9.80;99.90;;;;;;5041867;28;20029;-73
2021/12/13 12:21:53;;;;;;;0.10;0.10;;;9.80;99.90;;;;;;5047015;28;20036;-75
2021/12/13 12:24:47;;;;;;;0.40;0.40;;;9.80;99.90;;;;;;5042322;28;20021;-75
2021/12/13 12:27:29;;;;;;;0.65;0.65;;;9.90;99.90;;;;;;5034059;28;20073;-73
2021/12/13 12:30:16;;;;;;;0.10;0.10;;;9.90;99.90;;;;;;5032911;28;20060;-72
2021/12/13 12:32:50;;;;;;;0.10;0.10;;;9.90;99.90;;;;;;5037168;28;20479;-72
2021/12/13 12:35:23;;;;;;;0.95;0.95;;;9.90;99.90;;;;;;5032829;28;20334;-72
2021/12/13 12:38:00;;;;;;;0.43;0.40;;;10.00;99.90;;;;;;5043135;28;21022;-72
2021/12/13 12:40:36;;;;;;;0.10;0.10;;;10.10;99.90;;;;;;5036116;28;20021;-75
2021/12/13 12:43:07;;;;;;;0.10;0.10;;;10.00;99.90;;;;;;5029270;28;20056;-74
2021/12/13 12:45:39;;;;;;;0.25;0.25;;;10.10;99.90;;;;;;5041496;28;20017;-75
2021/12/13 12:48:27;;;;;;;0.10;0.10;;;10.20;99.90;;;;;;5039525;28;20025;-75
2021/12/13 12:50:59;;;;;;;0.10;0.10;;;10.20;99.90;;;;;;5040090;28;20549;-74
2021/12/13 12:53:27;;;;;;;0.10;0.10;;;10.10;99.90;;;;;;5035107;28;20030;-75
2021/12/13 12:55:57;;;;;;;0.10;0.10;;;10.00;99.90;;;;;;5040737;28;20506;-74
2021/12/13 12:58:33;;;;;;;0.10;0.10;;;10.00;99.90;;;;;;5047426;28;20028;-75
2021/12/13 13:01:13;;;;;;;0.20;0.20;;;10.10;99.90;;;;;;5041907;28;20432;-75
2021/12/13 13:03:39;;;;;;;0.10;0.10;;;10.00;99.90;;;;;;5031412;28;20529;-74
2021/12/13 13:06:12;;;;;;;0.10;0.10;;;9.90;99.90;;;;;;5049494;28;20033;-73
2021/12/13 13:08:42;;;;;;;0.10;0.10;;;10.00;99.90;;;;;;5045696;28;20025;-73
2021/12/13 13:11:26;;;;;;;0.10;0.10;;;10.00;99.90;;;;;;5047457;28;20061;-71
2021/12/13 13:13:54;;;;;;;0.15;0.15;;;9.90;99.90;;;;;;5041560;28;20028;-74
2021/12/13 13:16:31;;;;;;;0.08;0.08;;;9.90;99.90;;;;;;5043168;28;20028;-74
2021/12/13 13:18:57;;;;;;;0.10;0.10;;;9.90;99.90;;;;;;5041801;28;20045;-73
2021/12/13 13:21:23;;;;;;;1.33;1.33;;;10.10;99.90;;;;;;5041705;28;20053;-75
2021/12/13 13:23:54;;;;;;;0.20;0.20;;;10.00;99.90;;;;;;5040921;28;20498;-73
2021/12/13 13:26:22;;;;;;;0.10;0.10;;;10.10;99.90;;;;;;5043309;28;20107;-73
2021/12/13 13:28:53;;;;;;;0.15;0.15;;;10.40;99.90;;;;;;5049448;28;20032;-70
2021/12/13 13:31:28;;;;;;;0.10;0.10;;;10.00;99.90;;;;;;5038887;28;20447;-74
2021/12/13 13:34:01;;;;;;;0.10;0.10;;;10.00;99.90;;;;;;5042313;28;20544;-72
2021/12/13 13:36:36;;;;;;;0.40;0.40;;;10.10;99.90;;;;;;5038058;28;20029;-72
2021/12/13 13:39:34;;;;;;;0.10;0.10;;;10.00;99.90;;;;;;5045173;28;20078;-73
2021/12/13 13:42:21;;;;;;;0.00;0.00;;;10.00;99.90;;;;;;5038199;28;20059;-73
2021/12/13 13:44:51;;;;;;;0.10;0.10;;;10.00;99.90;;;;;;5038225;28;20039;-73
2021/12/13 13:47:31;;;;;;;0.10;0.10;;;9.90;99.90;;;;;;5040846;28;20025;-74